Time;durP1;ratioP1;P1;durP2;ratioP2;P2;SDS_P1;SDS_P2;PMS_P1;PMS_P2;Temp;Humidity;BMP_temperature;BMP_pressure;BME280_temperature;BME280_humidity;BME280_pressure;Samples;Min_cycle;Max_cycle;Signal;HPM_P1;HPM_P2
2022/10/12 00:00:37;;;;;;;3.00;1.83;;;22.10;58.70;;;;;;4991892;28;20049;-67
2022/10/12 00:03:03;;;;;;;2.75;1.90;;;22.10;58.70;;;;;;4980638;28;20033;-67
2022/10/12 00:05:29;;;;;;;3.13;1.80;;;22.10;58.70;;;;;;4991699;28;20031;-67
2022/10/12 00:07:54;;;;;;;3.35;1.85;;;22.10;58.70;;;;;;4991350;28;20536;-68
2022/10/12 00:10:23;;;;;;;3.42;2.08;;;22.10;58.70;;;;;;4989740;28;20134;-67
2022/10/12 00:12:48;;;;;;;2.80;1.80;;;22.10;58.70;;;;;;4998514;28;20109;-67
2022/10/12 00:15:14;;;;;;;3.35;2.00;;;22.00;58.70;;;;;;4994999;28;20132;-67
2022/10/12 00:17:40;;;;;;;2.90;1.90;;;22.10;58.70;;;;;;4999610;28;20023;-67
2022/10/12 00:20:06;;;;;;;3.10;1.92;;;22.10;58.70;;;;;;4998857;28;20022;-67
2022/10/12 00:22:32;;;;;;;2.90;2.10;;;22.10;58.70;;;;;;5001787;28;20448;-68
2022/10/12 00:25:04;;;;;;;3.38;2.10;;;22.00;58.70;;;;;;4985818;28;20030;-68
2022/10/12 00:27:29;;;;;;;2.88;1.70;;;22.10;58.70;;;;;;5000676;28;20481;-67
2022/10/12 00:29:55;;;;;;;2.92;1.77;;;22.00;58.70;;;;;;4998774;28;20026;-68
2022/10/12 00:32:20;;;;;;;3.28;1.90;;;22.00;58.70;;;;;;4998090;28;20448;-67
2022/10/12 00:34:46;;;;;;;4.05;2.08;;;22.00;58.70;;;;;;4997350;28;20030;-68
2022/10/12 00:37:12;;;;;;;3.75;1.92;;;22.00;58.70;;;;;;4981247;28;20077;-67
2022/10/12 00:39:37;;;;;;;3.08;1.85;;;22.00;58.70;;;;;;5000964;28;20034;-68
2022/10/12 00:42:03;;;;;;;3.05;1.73;;;22.00;59.20;;;;;;4979247;28;20042;-68
2022/10/12 00:44:36;;;;;;;2.92;1.80;;;22.00;58.70;;;;;;4999078;28;20072;-67
2022/10/12 00:47:20;;;;;;;2.80;1.90;;;22.00;58.70;;;;;;4994871;28;20037;-68
2022/10/12 00:49:59;;;;;;;3.05;1.90;;;22.00;58.70;;;;;;4993714;28;20026;-68
2022/10/12 00:52:33;;;;;;;2.50;1.65;;;22.00;58.70;;;;;;5000863;28;20019;-67
2022/10/12 00:55:00;;;;;;;2.88;1.80;;;22.00;58.70;;;;;;4997850;28;20125;-68
2022/10/12 00:57:27;;;;;;;2.85;1.80;;;22.00;58.70;;;;;;4979176;28;20392;-68
2022/10/12 01:00:04;;;;;;;3.33;1.90;;;22.00;58.70;;;;;;4992822;28;20052;-67
2022/10/12 01:02:31;;;;;;;3.00;1.90;;;22.00;58.70;;;;;;5000563;28;20041;-67
2022/10/12 01:04:58;;;;;;;2.78;1.80;;;22.00;58.70;;;;;;5000185;28;20029;-68
2022/10/12 01:07:24;;;;;;;2.60;1.70;;;22.00;58.70;;;;;;4998282;28;20022;-68
2022/10/12 01:09:50;;;;;;;2.53;1.75;;;22.00;58.70;;;;;;4997036;28;20346;-68
2022/10/12 01:12:16;;;;;;;2.65;1.80;;;22.00;58.70;;;;;;4985608;28;20041;-68
2022/10/12 01:14:41;;;;;;;2.75;1.73;;;22.00;58.70;;;;;;5000692;28;20050;-68
2022/10/12 01:17:22;;;;;;;2.60;1.80;;;22.00;58.70;;;;;;5001132;28;20367;-67
2022/10/12 01:20:10;;;;;;;2.33;1.60;;;22.00;58.70;;;;;;5000362;28;20218;-68
2022/10/12 01:22:52;;;;;;;3.03;1.70;;;22.00;58.70;;;;;;4997695;28;20022;-68
2022/10/12 01:25:47;;;;;;;2.47;1.77;;;22.00;58.70;;;;;;4999185;28;20025;-68
2022/10/12 01:28:30;;;;;;;3.00;1.90;;;22.00;58.70;;;;;;4997804;28;20539;-68
2022/10/12 01:31:21;;;;;;;2.80;1.70;;;22.00;58.70;;;;;;4998032;28;20456;-68
2022/10/12 01:33:58;;;;;;;2.97;1.88;;;22.00;58.70;;;;;;4984346;28;20046;-68
2022/10/12 01:36:44;;;;;;;3.03;1.85;;;22.00;58.70;;;;;;4989309;28;20062;-68
2022/10/12 01:39:16;;;;;;;2.72;1.77;;;22.00;58.70;;;;;;5000810;28;20026;-68
2022/10/12 01:41:47;;;;;;;2.55;1.95;;;22.00;58.70;;;;;;4998499;28;20018;-67
2022/10/12 01:44:20;;;;;;;2.75;1.70;;;22.00;58.70;;;;;;4999683;28;20022;-68
2022/10/12 01:46:46;;;;;;;2.85;1.92;;;22.00;58.70;;;;;;4998421;28;20108;-68
2022/10/12 01:49:15;;;;;;;2.38;1.70;;;22.00;58.70;;;;;;4995529;28;20108;-68
2022/10/12 01:52:08;;;;;;;2.92;1.98;;;22.00;58.70;;;;;;4997230;28;20088;-68
2022/10/12 01:55:04;;;;;;;2.70;1.70;;;22.00;58.70;;;;;;4997323;28;20117;-68
2022/10/12 01:57:32;;;;;;;2.97;1.83;;;22.00;58.70;;;;;;4996693;28;20018;-68
2022/10/12 02:00:13;;;;;;;3.70;1.90;;;22.00;58.70;;;;;;4997765;28;20358;-68
2022/10/12 02:02:57;;;;;;;3.28;2.03;;;22.00;58.70;;;;;;4999724;28;20109;-67
2022/10/12 02:05:37;;;;;;;2.70;1.70;;;22.00;58.70;;;;;;4979370;28;20125;-68
2022/10/12 02:08:12;;;;;;;2.70;1.70;;;22.00;58.70;;;;;;4999071;28;20505;-67
2022/10/12 02:10:45;;;;;;;2.80;1.70;;;22.00;58.70;;;;;;4995795;28;20062;-67
2022/10/12 02:13:14;;;;;;;3.17;1.90;;;22.00;58.70;;;;;;4978710;28;20019;-67
2022/10/12 02:15:42;;;;;;;2.75;1.77;;;21.90;58.70;;;;;;4978461;28;20081;-67
2022/10/12 02:18:11;;;;;;;2.47;1.65;;;21.90;58.70;;;;;;4995242;28;20064;-67
2022/10/12 02:20:39;;;;;;;2.85;1.73;;;21.90;58.70;;;;;;5000638;28;20457;-67
2022/10/12 02:23:06;;;;;;;2.70;1.70;;;21.90;58.70;;;;;;4999256;28;20490;-67
2022/10/12 02:25:33;;;;;;;2.65;1.85;;;21.90;58.70;;;;;;4996283;28;20540;-67
2022/10/12 02:28:04;;;;;;;2.47;1.60;;;21.90;58.70;;;;;;4997428;28;20026;-67
2022/10/12 02:30:37;;;;;;;2.80;1.70;;;21.90;58.70;;;;;;4994462;28;20037;-67
2022/10/12 02:33:31;;;;;;;3.50;1.90;;;21.90;58.70;;;;;;4996494;28;20771;-67
2022/10/12 02:36:05;;;;;;;3.63;1.80;;;21.90;58.70;;;;;;4975423;28;20097;-67
2022/10/12 02:38:33;;;;;;;2.58;1.65;;;21.90;58.70;;;;;;4972246;28;20335;-67
2022/10/12 02:41:11;;;;;;;2.85;1.73;;;21.90;58.70;;;;;;4997152;28;20509;-69
2022/10/12 02:43:51;;;;;;;3.33;1.70;;;21.90;58.70;;;;;;4998206;28;20026;-67
2022/10/12 02:46:17;;;;;;;;;;;21.90;58.70;;;;;;5001118;28;20481;-67
2022/10/12 02:48:45;;;;;;;2.80;1.90;;;21.90;58.70;;;;;;4998810;28;19906;-68
2022/10/12 02:51:11;;;;;;;2.30;1.70;;;21.90;58.70;;;;;;4997995;28;20397;-67
2022/10/12 02:53:37;;;;;;;2.70;1.60;;;21.90;58.70;;;;;;4994923;28;20450;-67
2022/10/12 02:56:06;;;;;;;2.47;1.60;;;21.90;58.70;;;;;;4994862;28;20045;-67
2022/10/12 02:58:32;;;;;;;2.72;1.67;;;21.90;58.70;;;;;;5000326;28;20030;-67
2022/10/12 03:00:58;;;;;;;2.20;1.40;;;21.90;58.70;;;;;;4997650;28;20084;-67
2022/10/12 03:03:24;;;;;;;2.70;1.70;;;21.90;58.70;;;;;;4998857;28;20030;-67
2022/10/12 03:05:49;;;;;;;2.55;1.63;;;21.90;58.70;;;;;;4995079;28;20022;-67
2022/10/12 03:08:15;;;;;;;3.22;2.00;;;21.90;58.70;;;;;;4995855;28;20501;-68
2022/10/12 03:10:40;;;;;;;1.95;1.48;;;21.90;58.70;;;;;;4996781;28;20077;-67
2022/10/12 03:13:06;;;;;;;2.85;1.90;;;21.90;58.70;;;;;;5001745;28;20386;-67
2022/10/12 03:15:32;;;;;;;2.35;1.50;;;21.90;58.70;;;;;;4999494;28;20055;-68
2022/10/12 03:17:58;;;;;;;2.53;1.67;;;21.90;58.70;;;;;;4998312;28;20055;-68
2022/10/12 03:20:24;;;;;;;2.38;1.58;;;21.90;59.20;;;;;;4978216;28;20080;-68
2022/10/12 03:22:50;;;;;;;2.50;1.70;;;21.90;58.70;;;;;;4998178;28;20887;-68
2022/10/12 03:25:16;;;;;;;2.53;1.58;;;21.90;58.70;;;;;;5000441;28;20046;-67
2022/10/12 03:27:41;;;;;;;2.88;2.00;;;21.90;58.70;;;;;;4987174;28;20030;-68
2022/10/12 03:30:10;;;;;;;2.55;1.65;;;21.90;58.70;;;;;;4971053;28;20042;-68
2022/10/12 03:32:36;;;;;;;2.55;1.70;;;21.90;58.70;;;;;;5003690;28;20027;-68
2022/10/12 03:35:01;;;;;;;2.53;1.60;;;21.90;58.70;;;;;;4967131;28;20025;-68
2022/10/12 03:37:27;;;;;;;2.40;1.73;;;21.90;58.70;;;;;;5002295;28;20027;-68
2022/10/12 03:39:53;;;;;;;2.35;1.50;;;21.90;58.70;;;;;;5001425;28;20442;-68
2022/10/12 03:42:18;;;;;;;2.10;1.60;;;21.90;58.70;;;;;;4992572;28;20029;-68
2022/10/12 03:44:44;;;;;;;2.30;1.63;;;21.90;58.70;;;;;;4990528;28;20030;-69
2022/10/12 03:47:10;;;;;;;2.63;1.67;;;21.90;58.70;;;;;;4998791;28;20083;-68
2022/10/12 03:49:35;;;;;;;3.00;1.58;;;21.90;58.70;;;;;;4981974;28;20381;-68
2022/10/12 03:52:01;;;;;;;2.45;1.50;;;21.80;58.60;;;;;;5001267;28;20022;-68
2022/10/12 03:54:26;;;;;;;2.05;1.52;;;21.90;58.70;;;;;;4996837;28;21049;-68
2022/10/12 03:56:52;;;;;;;2.40;1.63;;;21.90;58.70;;;;;;4974999;28;20053;-68
2022/10/12 03:59:18;;;;;;;2.28;1.60;;;21.80;58.60;;;;;;4991806;28;20054;-68
2022/10/12 04:01:43;;;;;;;1.92;1.52;;;21.80;58.70;;;;;;5002428;28;20037;-67
2022/10/12 04:04:10;;;;;;;2.50;1.67;;;21.80;58.60;;;;;;4998726;28;20027;-66
2022/10/12 04:06:35;;;;;;;2.95;1.60;;;21.80;58.70;;;;;;4994157;28;20061;-67
2022/10/12 04:09:01;;;;;;;2.05;1.60;;;21.90;58.70;;;;;;5000032;28;20026;-67
2022/10/12 04:11:27;;;;;;;3.05;1.90;;;21.80;58.70;;;;;;4996502;28;20054;-66
2022/10/12 04:13:53;;;;;;;2.55;1.70;;;21.80;58.60;;;;;;4995959;28;20022;-67
2022/10/12 04:16:18;;;;;;;2.13;1.50;;;21.80;58.60;;;;;;5002074;28;20066;-67
2022/10/12 04:18:44;;;;;;;2.28;1.50;;;21.80;58.60;;;;;;5000711;28;20456;-66
2022/10/12 04:21:12;;;;;;;2.70;1.70;;;21.80;58.60;;;;;;4999032;28;20026;-66
2022/10/12 04:23:39;;;;;;;2.17;1.50;;;21.80;58.60;;;;;;4999990;28;20130;-66
2022/10/12 04:26:04;;;;;;;1.98;1.40;;;21.80;58.60;;;;;;4998871;28;20030;-67
2022/10/12 04:28:33;;;;;;;1.95;1.50;;;21.80;59.20;;;;;;4992781;28;20034;-67
2022/10/12 04:30:59;;;;;;;1.92;1.42;;;21.80;58.70;;;;;;4998325;28;20516;-67
2022/10/12 04:33:24;;;;;;;2.30;1.60;;;21.80;58.70;;;;;;4996714;28;20034;-67
2022/10/12 04:35:50;;;;;;;2.17;1.50;;;21.80;58.70;;;;;;4994660;28;20032;-67
2022/10/12 04:38:15;;;;;;;2.50;1.70;;;21.80;58.70;;;;;;4995610;28;20038;-66
2022/10/12 04:40:46;;;;;;;2.55;1.60;;;21.80;58.70;;;;;;4985184;28;20106;-67
2022/10/12 04:43:12;;;;;;;2.50;1.58;;;21.80;58.70;;;;;;4996389;28;20022;-67
2022/10/12 04:45:38;;;;;;;2.17;1.55;;;21.80;58.70;;;;;;4983637;28;20133;-67
2022/10/12 04:48:03;;;;;;;2.00;1.50;;;21.80;58.70;;;;;;4976312;28;20022;-67
2022/10/12 04:50:29;;;;;;;3.00;1.67;;;21.80;59.20;;;;;;4988730;28;20030;-67
2022/10/12 04:52:55;;;;;;;2.67;1.70;;;21.80;58.70;;;;;;4974728;28;20092;-66
2022/10/12 04:55:20;;;;;;;2.28;1.63;;;21.80;58.70;;;;;;5000347;28;20042;-68
2022/10/12 04:57:46;;;;;;;1.90;1.42;;;21.80;58.70;;;;;;4991633;28;20126;-67
2022/10/12 05:00:12;;;;;;;2.22;1.50;;;21.80;58.70;;;;;;5000520;28;20034;-67
2022/10/12 05:02:37;;;;;;;2.60;1.77;;;21.80;58.80;;;;;;5000416;28;20397;-67
2022/10/12 05:05:03;;;;;;;2.40;1.52;;;21.80;58.70;;;;;;5001807;28;20066;-67
2022/10/12 05:07:29;;;;;;;2.85;1.60;;;21.80;58.70;;;;;;4998813;28;20385;-67
2022/10/12 05:09:55;;;;;;;2.40;1.70;;;21.80;58.70;;;;;;4981998;28;20416;-67
2022/10/12 05:12:20;;;;;;;3.00;1.70;;;21.80;58.70;;;;;;5000585;28;20109;-67
2022/10/12 05:14:46;;;;;;;2.40;1.70;;;21.80;58.70;;;;;;4996287;28;20045;-67
2022/10/12 05:17:11;;;;;;;2.65;1.73;;;21.70;58.70;;;;;;4996669;28;20094;-67
2022/10/12 05:19:37;;;;;;;2.97;1.70;;;21.70;58.70;;;;;;5001438;28;20385;-67
2022/10/12 05:22:03;;;;;;;2.05;1.60;;;21.80;58.70;;;;;;4997212;28;20072;-67
2022/10/12 05:24:28;;;;;;;2.63;1.80;;;21.80;58.80;;;;;;4996737;28;20057;-68
2022/10/12 05:26:55;;;;;;;2.15;1.60;;;21.70;58.70;;;;;;4989506;28;20037;-67
2022/10/12 05:29:20;;;;;;;2.40;1.65;;;21.70;59.20;;;;;;4995411;28;20026;-67
2022/10/12 05:31:46;;;;;;;2.35;1.50;;;21.70;58.70;;;;;;4999198;28;20092;-67
2022/10/12 05:34:11;;;;;;;2.78;1.70;;;21.70;58.70;;;;;;4998104;28;20388;-66
2022/10/12 05:36:37;;;;;;;2.03;1.45;;;21.70;58.70;;;;;;4996905;28;20031;-67
2022/10/12 05:39:03;;;;;;;2.83;1.50;;;21.70;58.70;;;;;;4984097;28;20689;-67
2022/10/12 05:41:28;;;;;;;2.65;1.75;;;21.70;58.70;;;;;;4997705;28;20033;-68
2022/10/12 05:43:54;;;;;;;2.78;1.80;;;21.70;58.70;;;;;;4997387;28;20058;-67
2022/10/12 05:46:20;;;;;;;2.10;1.50;;;21.80;58.80;;;;;;4981732;28;20028;-67
2022/10/12 05:48:45;;;;;;;2.38;1.80;;;21.70;58.70;;;;;;4998923;28;20022;-67
2022/10/12 05:51:11;;;;;;;2.25;1.50;;;21.70;58.70;;;;;;5000449;28;20392;-67
2022/10/12 05:53:37;;;;;;;2.33;1.50;;;21.70;58.70;;;;;;4998841;28;20113;-67
2022/10/12 05:56:02;;;;;;;2.40;1.65;;;21.80;58.80;;;;;;4998420;28;20441;-66
2022/10/12 05:58:29;;;;;;;2.92;1.77;;;21.70;58.70;;;;;;4998829;28;20056;-67
2022/10/12 06:01:02;;;;;;;2.47;1.58;;;21.70;58.70;;;;;;4995444;28;20540;-67
2022/10/12 06:03:28;;;;;;;2.88;1.73;;;21.70;58.70;;;;;;4996244;28;20469;-66
2022/10/12 06:05:54;;;;;;;2.45;1.70;;;21.70;58.70;;;;;;5000394;28;20026;-67
2022/10/12 06:08:19;;;;;;;2.53;1.50;;;21.70;58.70;;;;;;4993235;28;20418;-67
2022/10/12 06:10:48;;;;;;;2.88;1.60;;;21.80;58.80;;;;;;4998055;28;20037;-67
2022/10/12 06:13:16;;;;;;;2.40;1.60;;;21.70;58.70;;;;;;4996006;28;20133;-67
2022/10/12 06:15:44;;;;;;;2.90;1.80;;;21.70;58.70;;;;;;4999488;28;20046;-67
2022/10/12 06:18:10;;;;;;;3.17;1.60;;;21.70;58.70;;;;;;4982333;28;20543;-66
2022/10/12 06:20:36;;;;;;;2.42;1.50;;;21.70;58.70;;;;;;4997231;28;20108;-66
2022/10/12 06:23:01;;;;;;;2.30;1.60;;;21.70;58.70;;;;;;5002519;28;20060;-67
2022/10/12 06:25:27;;;;;;;2.60;2.00;;;21.70;58.70;;;;;;4998703;28;20062;-67
2022/10/12 06:27:53;;;;;;;2.35;1.60;;;21.70;58.70;;;;;;4993865;28;20037;-66
2022/10/12 06:30:19;;;;;;;2.50;1.70;;;21.70;58.70;;;;;;4995252;28;20342;-67
2022/10/12 06:32:44;;;;;;;3.10;1.80;;;21.70;58.70;;;;;;4997750;28;20068;-67
2022/10/12 06:35:10;;;;;;;2.92;1.70;;;21.70;58.70;;;;;;4980485;28;20030;-66
2022/10/12 06:37:36;;;;;;;3.00;1.60;;;21.70;58.70;;;;;;4996544;28;20042;-67
2022/10/12 06:40:02;;;;;;;2.35;1.70;;;21.70;58.70;;;;;;4999567;28;20037;-67
2022/10/12 06:42:27;;;;;;;2.08;1.65;;;21.70;58.70;;;;;;4976911;28;20078;-66
2022/10/12 06:44:53;;;;;;;2.30;1.60;;;21.70;58.70;;;;;;4977641;28;20026;-67
2022/10/12 06:47:18;;;;;;;2.33;1.60;;;21.70;58.70;;;;;;4997381;28;20505;-66
2022/10/12 06:49:44;;;;;;;2.45;1.70;;;21.70;58.70;;;;;;4999059;28;20056;-67
2022/10/12 06:52:09;;;;;;;2.28;1.60;;;21.70;58.70;;;;;;4994551;28;20027;-66
2022/10/12 06:54:35;;;;;;;2.13;1.50;;;21.70;58.70;;;;;;4993811;28;20057;-68
2022/10/12 06:57:01;;;;;;;3.05;1.98;;;21.70;58.70;;;;;;4999446;28;20438;-67
2022/10/12 06:59:26;;;;;;;2.30;1.45;;;21.70;58.70;;;;;;4997992;28;20038;-66
2022/10/12 07:01:52;;;;;;;2.47;1.77;;;21.70;59.20;;;;;;4998501;28;20041;-67
2022/10/12 07:04:18;;;;;;;2.47;1.60;;;21.70;58.70;;;;;;4993123;28;20026;-66
2022/10/12 07:06:44;;;;;;;2.22;1.67;;;21.70;58.70;;;;;;4981594;28;20461;-67
2022/10/12 07:09:09;;;;;;;2.47;1.50;;;21.70;58.60;;;;;;4987197;28;22005;-66
2022/10/12 07:11:35;;;;;;;2.15;1.50;;;21.60;58.60;;;;;;4992192;28;20372;-67
2022/10/12 07:14:00;;;;;;;2.30;1.60;;;21.70;58.60;;;;;;4998866;28;20018;-67
2022/10/12 07:16:26;;;;;;;2.17;1.50;;;21.70;58.60;;;;;;4979282;28;20027;-67
2022/10/12 07:18:52;;;;;;;2.53;1.70;;;21.60;58.60;;;;;;4981951;28;20389;-67
2022/10/12 07:21:18;;;;;;;2.30;1.60;;;21.70;58.60;;;;;;4998130;28;20437;-67
2022/10/12 07:23:43;;;;;;;2.50;1.73;;;21.60;58.60;;;;;;4998062;28;20333;-67
2022/10/12 07:26:09;;;;;;;2.60;1.70;;;21.60;58.60;;;;;;4997665;28;20471;-68
2022/10/12 07:28:35;;;;;;;2.85;1.88;;;21.60;58.60;;;;;;4982273;28;20118;-66
2022/10/12 07:31:06;;;;;;;2.63;1.70;;;21.60;58.60;;;;;;4992540;28;20042;-67
2022/10/12 07:33:33;;;;;;;2.17;1.60;;;21.70;58.60;;;;;;4994811;28;20416;-67
2022/10/12 07:35:59;;;;;;;2.70;1.50;;;21.60;58.60;;;;;;4997875;28;20030;-67
2022/10/12 07:38:25;;;;;;;2.20;1.63;;;21.60;58.50;;;;;;5000714;28;20049;-66
2022/10/12 07:40:51;;;;;;;2.55;1.63;;;21.60;58.50;;;;;;4997602;28;20030;-67
2022/10/12 07:43:16;;;;;;;2.28;1.60;;;21.70;58.60;;;;;;4998534;28;20026;-67
2022/10/12 07:45:42;;;;;;;2.30;1.52;;;21.60;58.60;;;;;;4995432;28;20092;-67
2022/10/12 07:48:08;;;;;;;3.00;1.70;;;21.60;58.60;;;;;;4994141;28;20413;-67
2022/10/12 07:50:33;;;;;;;3.72;1.80;;;21.70;58.60;;;;;;4992176;28;20105;-67
2022/10/12 07:52:59;;;;;;;2.10;1.50;;;21.60;58.60;;;;;;4980194;28;20482;-67
2022/10/12 07:55:24;;;;;;;2.63;1.88;;;21.60;58.60;;;;;;4993187;28;20088;-67
2022/10/12 07:57:50;;;;;;;2.70;1.67;;;21.60;58.60;;;;;;4993189;28;20034;-67
2022/10/12 08:00:16;;;;;;;2.30;1.50;;;21.60;58.60;;;;;;4994091;28;20100;-67
2022/10/12 08:02:42;;;;;;;2.50;1.80;;;21.60;58.60;;;;;;4998727;28;20336;-67
2022/10/12 08:05:08;;;;;;;2.60;1.70;;;21.60;58.60;;;;;;5001844;28;20470;-67
2022/10/12 08:07:33;;;;;;;2.92;1.90;;;21.60;58.60;;;;;;5002726;28;20444;-67
2022/10/12 08:09:59;;;;;;;2.72;1.70;;;21.60;58.60;;;;;;5001114;28;20030;-67
2022/10/12 08:12:24;;;;;;;2.03;1.50;;;21.60;58.60;;;;;;4999307;28;20358;-66
2022/10/12 08:14:50;;;;;;;2.78;1.85;;;21.60;58.60;;;;;;5001429;28;20350;-67
2022/10/12 08:17:16;;;;;;;2.35;1.70;;;21.60;58.60;;;;;;5002741;28;20026;-66
2022/10/12 08:19:41;;;;;;;2.22;1.67;;;21.60;58.60;;;;;;4991907;28;20030;-67
2022/10/12 08:22:07;;;;;;;2.40;1.58;;;21.60;58.60;;;;;;4997495;28;20242;-67
2022/10/12 08:24:34;;;;;;;3.20;1.92;;;21.60;58.80;;;;;;4964661;28;20042;-67
2022/10/12 08:27:00;;;;;;;3.88;1.70;;;21.60;58.60;;;;;;4998011;28;20537;-66
2022/10/12 08:29:26;;;;;;;2.55;1.60;;;21.60;58.60;;;;;;5001670;28;20137;-67
2022/10/12 08:31:53;;;;;;;2.30;1.67;;;21.60;58.60;;;;;;4997569;28;20060;-67
2022/10/12 08:34:18;;;;;;;2.42;1.75;;;21.60;58.60;;;;;;4978619;28;20061;-67
2022/10/12 08:36:44;;;;;;;1.98;1.42;;;21.60;58.60;;;;;;4997077;28;20446;-66
2022/10/12 08:39:10;;;;;;;3.00;1.90;;;21.50;58.50;;;;;;4997959;28;20037;-66
2022/10/12 08:41:59;;;;;;;2.35;1.58;;;21.60;58.60;;;;;;4991389;28;20034;-66
2022/10/12 08:44:40;;;;;;;2.10;1.58;;;21.50;58.50;;;;;;4997723;28;20497;-66
2022/10/12 08:47:13;;;;;;;2.03;1.58;;;21.60;58.60;;;;;;4997338;28;20599;-66
2022/10/12 08:49:40;;;;;;;3.33;1.90;;;21.50;58.50;;;;;;4998342;28;20088;-66
2022/10/12 08:52:25;;;;;;;1.95;1.60;;;21.60;58.60;;;;;;4984589;28;20026;-66
2022/10/12 08:54:51;;;;;;;2.35;1.70;;;21.50;58.50;;;;;;4988440;28;20031;-67
2022/10/12 08:57:18;;;;;;;2.42;1.80;;;21.60;58.60;;;;;;5002841;28;20493;-67
2022/10/12 08:59:45;;;;;;;2.70;1.90;;;21.50;58.50;;;;;;4997383;28;20058;-66
2022/10/12 09:02:43;;;;;;;3.28;1.70;;;21.50;58.50;;;;;;4997416;28;20040;-67
2022/10/12 09:05:14;;;;;;;2.88;1.80;;;21.50;58.50;;;;;;4949909;28;20524;-67
2022/10/12 09:07:54;;;;;;;2.30;1.60;;;21.50;58.50;;;;;;4996877;28;20026;-66
2022/10/12 09:10:58;;;;;;;3.30;1.90;;;21.50;58.60;;;;;;4983801;28;20085;-67
2022/10/12 09:13:41;;;;;;;2.58;1.73;;;21.50;58.60;;;;;;4982251;28;20096;-67
2022/10/12 09:16:28;;;;;;;2.20;1.60;;;21.50;58.60;;;;;;4991991;28;20524;-67
2022/10/12 09:19:23;;;;;;;2.28;1.60;;;21.60;58.60;;;;;;4991871;28;20019;-67
2022/10/12 09:21:49;;;;;;;2.92;1.67;;;21.50;58.60;;;;;;4999746;28;20080;-66
2022/10/12 09:24:19;;;;;;;3.35;1.90;;;21.50;58.60;;;;;;4996994;28;20422;-67
2022/10/12 09:26:49;;;;;;;2.28;1.80;;;21.50;58.60;;;;;;4991063;28;20026;-66
2022/10/12 09:29:25;;;;;;;2.50;1.73;;;21.50;58.60;;;;;;4989897;28;20026;-66
2022/10/12 09:32:12;;;;;;;3.58;2.00;;;21.50;58.60;;;;;;4997789;28;20389;-66
2022/10/12 09:34:38;;;;;;;2.08;1.50;;;21.50;58.60;;;;;;5001903;28;20473;-67
2022/10/12 09:37:04;;;;;;;2.38;1.70;;;21.50;58.60;;;;;;5000570;28;20031;-67
2022/10/12 09:39:35;;;;;;;2.30;1.70;;;21.50;58.60;;;;;;5000195;28;20030;-66
2022/10/12 09:42:01;;;;;;;2.15;1.65;;;21.50;58.60;;;;;;4979788;28;20029;-67
2022/10/12 09:44:58;;;;;;;2.42;1.70;;;21.50;58.60;;;;;;4998096;28;20546;-66
2022/10/12 09:47:27;;;;;;;2.22;1.65;;;21.50;58.60;;;;;;4998915;28;20144;-67
2022/10/12 09:49:57;;;;;;;2.83;1.80;;;21.50;58.60;;;;;;4999062;28;20551;-67
2022/10/12 09:52:35;;;;;;;2.75;1.80;;;21.50;58.60;;;;;;4994985;28;20034;-67
2022/10/12 09:55:04;;;;;;;2.33;1.60;;;21.50;58.60;;;;;;4994578;28;20049;-67
2022/10/12 09:57:34;;;;;;;2.70;1.65;;;21.50;58.60;;;;;;4994826;28;20033;-66
2022/10/12 10:00:05;;;;;;;2.15;1.40;;;21.50;58.60;;;;;;4979959;28;20035;-67
2022/10/12 10:02:33;;;;;;;2.40;1.70;;;21.50;58.60;;;;;;4979946;28;20034;-66
2022/10/12 10:05:34;;;;;;;2.30;1.60;;;21.50;59.10;;;;;;4993064;28;20040;-67
2022/10/12 10:08:20;;;;;;;2.17;1.60;;;21.50;58.60;;;;;;4994699;28;20038;-67
2022/10/12 10:10:52;;;;;;;2.38;1.70;;;21.50;58.60;;;;;;4991123;28;20474;-66
2022/10/12 10:13:20;;;;;;;2.65;1.60;;;21.50;58.60;;;;;;4996805;28;20116;-67
2022/10/12 10:15:50;;;;;;;2.55;1.90;;;21.50;58.60;;;;;;4991171;28;20108;-67
2022/10/12 10:18:33;;;;;;;2.83;1.80;;;21.50;58.60;;;;;;4998176;28;20021;-67
2022/10/12 10:21:00;;;;;;;2.03;1.60;;;21.50;58.60;;;;;;5000401;28;20406;-66
2022/10/12 10:23:31;;;;;;;3.10;1.60;;;21.50;58.60;;;;;;4998664;28;20026;-66
2022/10/12 10:26:13;;;;;;;2.58;1.60;;;21.50;58.60;;;;;;4999108;28;20427;-67
2022/10/12 10:28:41;;;;;;;2.58;1.70;;;21.50;58.60;;;;;;4995558;28;20062;-67
2022/10/12 10:31:24;;;;;;;2.58;1.80;;;21.50;58.60;;;;;;4995558;28;20039;-66
2022/10/12 10:34:16;;;;;;;2.17;1.70;;;21.50;58.60;;;;;;4996725;28;20029;-66
2022/10/12 10:36:51;;;;;;;3.00;1.77;;;21.50;58.60;;;;;;4990188;28;20046;-67
2022/10/12 10:39:19;;;;;;;2.90;1.83;;;21.50;58.60;;;;;;4996810;28;20026;-66
2022/10/12 10:41:45;;;;;;;2.35;1.63;;;21.50;58.60;;;;;;4998102;28;20083;-67
2022/10/12 10:44:22;;;;;;;2.67;1.90;;;21.50;58.60;;;;;;4995463;28;20546;-67
2022/10/12 10:46:48;;;;;;;2.60;1.80;;;21.50;58.60;;;;;;4988392;28;20505;-67
2022/10/12 10:49:37;;;;;;;2.20;1.70;;;21.50;58.60;;;;;;4973707;28;20113;-66
2022/10/12 10:52:06;;;;;;;2.80;1.90;;;21.50;58.60;;;;;;4996900;28;20022;-67
2022/10/12 10:54:36;;;;;;;2.45;1.60;;;21.50;58.60;;;;;;4980804;28;20473;-67
2022/10/12 10:57:20;;;;;;;2.38;1.60;;;21.50;58.60;;;;;;4997725;28;20334;-66
2022/10/12 10:59:56;;;;;;;2.08;1.52;;;21.50;58.60;;;;;;4997895;28;20029;-67
2022/10/12 11:02:32;;;;;;;2.53;1.80;;;21.50;58.60;;;;;;4992980;28;20084;-67
2022/10/12 11:05:32;;;;;;;2.22;1.70;;;21.50;58.70;;;;;;4995487;28;20062;-67
2022/10/12 11:07:57;;;;;;;;;;;21.40;58.60;;;;;;4997462;28;20437;-66
2022/10/12 11:10:30;;;;;;;2.60;2.00;;;21.50;58.60;;;;;;4997768;28;19968;-67
2022/10/12 11:13:06;;;;;;;2.80;1.80;;;21.50;58.60;;;;;;4999508;28;20340;-67
2022/10/12 11:15:47;;;;;;;2.53;1.85;;;21.50;59.30;;;;;;4996233;28;20093;-67
2022/10/12 11:18:29;;;;;;;2.78;1.90;;;21.50;58.80;;;;;;4997023;28;20485;-67
2022/10/12 11:20:56;;;;;;;3.33;1.90;;;21.50;58.90;;;;;;4974983;28;20079;-67
2022/10/12 11:23:46;;;;;;;2.95;1.80;;;21.50;59.50;;;;;;4993519;28;20518;-67
2022/10/12 11:26:23;;;;;;;4.13;2.40;;;21.50;59.00;;;;;;4975395;28;20232;-67
2022/10/12 11:28:51;;;;;;;4.05;2.38;;;21.50;59.10;;;;;;4995572;28;20037;-67
2022/10/12 11:31:23;;;;;;;4.45;2.40;;;21.50;59.10;;;;;;4996902;28;20038;-67
2022/10/12 11:33:51;;;;;;;4.75;2.33;;;21.50;59.20;;;;;;4985787;28;20636;-67
2022/10/12 11:36:23;;;;;;;4.13;2.65;;;21.50;59.20;;;;;;5001055;28;20133;-67
2022/10/12 11:39:14;;;;;;;4.30;2.72;;;21.50;59.30;;;;;;5001709;28;20032;-67
2022/10/12 11:41:49;;;;;;;5.10;2.67;;;21.50;59.30;;;;;;5001672;28;20042;-67
2022/10/12 11:44:31;;;;;;;4.13;2.60;;;21.50;59.30;;;;;;5001155;28;20133;-68
2022/10/12 11:47:12;;;;;;;4.43;2.80;;;21.50;59.30;;;;;;4995673;28;20508;-67
2022/10/12 11:49:41;;;;;;;4.18;2.80;;;21.50;59.40;;;;;;4976662;28;20095;-68
2022/10/12 11:52:11;;;;;;;4.40;2.70;;;21.50;59.40;;;;;;4994758;28;20041;-67
2022/10/12 11:54:45;;;;;;;5.25;2.70;;;21.50;59.40;;;;;;5002030;28;20367;-68
2022/10/12 11:57:23;;;;;;;4.43;2.47;;;21.50;59.50;;;;;;5001049;28;20019;-69
2022/10/12 11:59:52;;;;;;;3.80;2.60;;;21.50;59.50;;;;;;4969566;28;20102;-68
2022/10/12 12:02:32;;;;;;;4.97;2.80;;;21.50;59.40;;;;;;4999786;28;20065;-68
2022/10/12 12:05:00;;;;;;;4.90;2.80;;;21.50;59.50;;;;;;4996312;28;20036;-67
2022/10/12 12:07:42;;;;;;;4.47;2.70;;;21.50;59.40;;;;;;5001699;28;20025;-68
2022/10/12 12:10:26;;;;;;;4.47;2.78;;;21.50;59.50;;;;;;5000351;28;20030;-68
2022/10/12 12:13:11;;;;;;;4.35;2.78;;;21.50;59.50;;;;;;5003029;28;20388;-67
2022/10/12 12:15:42;;;;;;;4.22;2.95;;;21.50;59.40;;;;;;5002493;28;20100;-68
2022/10/12 12:18:27;;;;;;;4.95;2.90;;;21.50;59.40;;;;;;4997647;28;20033;-68
2022/10/12 12:21:06;;;;;;;4.75;2.90;;;21.50;59.50;;;;;;4999787;28;20026;-68
2022/10/12 12:23:41;;;;;;;4.38;2.88;;;21.50;59.40;;;;;;4996136;28;20371;-68
2022/10/12 12:26:10;;;;;;;4.13;2.72;;;21.50;59.40;;;;;;4997254;28;20104;-67
2022/10/12 12:28:41;;;;;;;5.50;2.80;;;21.50;59.40;;;;;;4997235;28;20114;-67
2022/10/12 12:31:10;;;;;;;5.18;3.10;;;21.50;59.40;;;;;;4996014;28;20037;-67
2022/10/12 12:33:40;;;;;;;4.18;2.90;;;21.50;59.40;;;;;;5000546;28;20118;-68
2022/10/12 12:36:43;;;;;;;4.22;2.80;;;21.50;59.40;;;;;;4995549;28;20030;-69
2022/10/12 12:39:20;;;;;;;4.15;2.72;;;21.50;59.40;;;;;;4990036;28;20124;-67
2022/10/12 12:41:59;;;;;;;5.43;2.60;;;21.50;59.50;;;;;;5003015;28;20037;-67
2022/10/12 12:44:39;;;;;;;;;;;21.50;59.40;;;;;;5001187;28;20092;-67
2022/10/12 12:47:08;;;;;;;;;;;21.50;59.50;;;;;;4989285;28;20397;-68
2022/10/12 12:49:36;;;;;;;4.82;2.42;;;21.50;59.50;;;;;;4996749;28;20448;-68
2022/10/12 12:52:09;;;;;;;3.93;2.70;;;21.50;59.50;;;;;;4984160;28;20061;-67
2022/10/12 12:54:40;;;;;;;4.65;2.58;;;21.50;59.40;;;;;;5001520;28;20713;-68
2022/10/12 12:57:35;;;;;;;5.25;3.10;;;21.50;59.50;;;;;;4998630;28;20052;-68
2022/10/12 13:00:20;;;;;;;4.38;2.72;;;21.50;59.50;;;;;;4924163;28;20080;-68
2022/10/12 13:03:09;;;;;;;4.13;2.50;;;21.50;59.60;;;;;;4980287;28;20049;-68
2022/10/12 13:06:17;;;;;;;3.50;2.60;;;21.50;59.60;;;;;;4997309;28;20173;-68